sensor_id;sensor_type;location;lat;lon;timestamp;pressure;altitude;pressure_sealevel;temperature;humidity
12594;BME280;6362;50.208;9.182;2023-02-22T00:01:15;99828.06;;;4.75;87.91
12594;BME280;6362;50.208;9.182;2023-02-22T00:04:00;99835.00;;;4.80;87.24
12594;BME280;6362;50.208;9.182;2023-02-22T00:06:27;99830.47;;;4.62;87.88
12594;BME280;6362;50.208;9.182;2023-02-22T00:08:53;99825.09;;;4.49;87.68
12594;BME280;6362;50.208;9.182;2023-02-22T00:11:19;99824.97;;;4.40;87.78
12594;BME280;6362;50.208;9.182;2023-02-22T00:13:45;99826.56;;;4.32;88.08
12594;BME280;6362;50.208;9.182;2023-02-22T00:16:16;99827.31;;;4.25;88.46
12594;BME280;6362;50.208;9.182;2023-02-22T00:18:42;99825.44;;;4.16;88.42
12594;BME280;6362;50.208;9.182;2023-02-22T00:21:09;99821.41;;;4.31;88.71
12594;BME280;6362;50.208;9.182;2023-02-22T00:23:35;99824.75;;;4.25;88.96
12594;BME280;6362;50.208;9.182;2023-02-22T00:26:05;99818.72;;;4.23;88.93
12594;BME280;6362;50.208;9.182;2023-02-22T00:28:36;99816.84;;;4.14;88.96
12594;BME280;6362;50.208;9.182;2023-02-22T00:31:04;99813.56;;;4.24;89.73
12594;BME280;6362;50.208;9.182;2023-02-22T00:33:31;99805.19;;;4.38;88.53
12594;BME280;6362;50.208;9.182;2023-02-22T00:35:57;99818.78;;;4.28;87.40
12594;BME280;6362;50.208;9.182;2023-02-22T00:38:23;99810.22;;;4.29;87.51
12594;BME280;6362;50.208;9.182;2023-02-22T00:40:49;99807.38;;;4.13;87.18
12594;BME280;6362;50.208;9.182;2023-02-22T00:43:15;99810.56;;;3.97;87.39
12594;BME280;6362;50.208;9.182;2023-02-22T00:45:40;99806.19;;;3.93;87.85
12594;BME280;6362;50.208;9.182;2023-02-22T00:48:07;99807.91;;;3.94;88.60
12594;BME280;6362;50.208;9.182;2023-02-22T00:50:33;99805.34;;;3.94;88.40
12594;BME280;6362;50.208;9.182;2023-02-22T00:53:00;99807.00;;;3.89;88.86
12594;BME280;6362;50.208;9.182;2023-02-22T00:55:28;99807.31;;;4.09;89.63
12594;BME280;6362;50.208;9.182;2023-02-22T00:57:55;99803.00;;;4.08;89.42
12594;BME280;6362;50.208;9.182;2023-02-22T01:00:26;99795.03;;;3.94;89.46
12594;BME280;6362;50.208;9.182;2023-02-22T01:02:53;99792.69;;;4.06;89.66
12594;BME280;6362;50.208;9.182;2023-02-22T01:05:22;99796.16;;;4.08;89.55
12594;BME280;6362;50.208;9.182;2023-02-22T01:07:48;99786.63;;;4.03;89.75
12594;BME280;6362;50.208;9.182;2023-02-22T01:10:17;99783.97;;;3.98;89.33
12594;BME280;6362;50.208;9.182;2023-02-22T01:12:44;99775.38;;;3.96;90.22
12594;BME280;6362;50.208;9.182;2023-02-22T01:15:10;99770.31;;;4.02;90.03
12594;BME280;6362;50.208;9.182;2023-02-22T01:17:37;99773.84;;;4.07;90.40
12594;BME280;6362;50.208;9.182;2023-02-22T01:20:09;99768.94;;;4.22;90.47
12594;BME280;6362;50.208;9.182;2023-02-22T01:22:40;99776.91;;;4.39;89.53
12594;BME280;6362;50.208;9.182;2023-02-22T01:25:07;99777.72;;;4.35;89.06
12594;BME280;6362;50.208;9.182;2023-02-22T01:27:33;99768.19;;;4.31;88.42
12594;BME280;6362;50.208;9.182;2023-02-22T01:30:00;99761.09;;;4.15;89.06
12594;BME280;6362;50.208;9.182;2023-02-22T01:32:25;99759.28;;;4.11;89.89
12594;BME280;6362;50.208;9.182;2023-02-22T01:34:54;99759.38;;;4.15;90.17
12594;BME280;6362;50.208;9.182;2023-02-22T01:37:20;99748.50;;;4.33;90.21
12594;BME280;6362;50.208;9.182;2023-02-22T01:39:45;99755.31;;;4.31;90.45
12594;BME280;6362;50.208;9.182;2023-02-22T01:42:11;99757.25;;;4.44;90.07
12594;BME280;6362;50.208;9.182;2023-02-22T01:44:38;99756.28;;;4.38;89.31
12594;BME280;6362;50.208;9.182;2023-02-22T01:47:06;99750.25;;;4.37;88.55
12594;BME280;6362;50.208;9.182;2023-02-22T01:49:48;99755.50;;;4.43;87.86
12594;BME280;6362;50.208;9.182;2023-02-22T01:52:17;99744.91;;;4.22;88.10
12594;BME280;6362;50.208;9.182;2023-02-22T01:54:51;99743.91;;;4.14;88.03
12594;BME280;6362;50.208;9.182;2023-02-22T01:59:50;99741.19;;;4.03;89.10
12594;BME280;6362;50.208;9.182;2023-02-22T02:02:17;99740.38;;;4.06;89.82
12594;BME280;6362;50.208;9.182;2023-02-22T02:04:46;99735.44;;;4.21;89.66
12594;BME280;6362;50.208;9.182;2023-02-22T02:07:14;99742.38;;;4.25;89.47
12594;BME280;6362;50.208;9.182;2023-02-22T02:09:58;99740.66;;;4.24;88.67
12594;BME280;6362;50.208;9.182;2023-02-22T02:12:25;99740.63;;;4.22;88.52
12594;BME280;6362;50.208;9.182;2023-02-22T02:14:52;99733.72;;;4.20;88.10
12594;BME280;6362;50.208;9.182;2023-02-22T02:17:20;99735.22;;;4.06;88.02
12594;BME280;6362;50.208;9.182;2023-02-22T02:20:09;99737.66;;;3.96;87.82
12594;BME280;6362;50.208;9.182;2023-02-22T02:28:42;99721.19;;;3.87;87.52
12594;BME280;6362;50.208;9.182;2023-02-22T02:34:33;99724.22;;;3.61;88.45
12594;BME280;6362;50.208;9.182;2023-02-22T02:37:19;99719.13;;;3.66;88.20
12594;BME280;6362;50.208;9.182;2023-02-22T02:39:59;99718.06;;;3.53;88.38
12594;BME280;6362;50.208;9.182;2023-02-22T02:42:39;99707.03;;;3.59;88.37
12594;BME280;6362;50.208;9.182;2023-02-22T02:45:20;99708.72;;;3.57;88.77
12594;BME280;6362;50.208;9.182;2023-02-22T02:47:52;99709.41;;;3.48;88.36
12594;BME280;6362;50.208;9.182;2023-02-22T02:52:50;99703.22;;;3.38;89.10
12594;BME280;6362;50.208;9.182;2023-02-22T02:55:17;99692.69;;;3.23;89.61
12594;BME280;6362;50.208;9.182;2023-02-22T02:57:43;99695.47;;;3.35;89.79
12594;BME280;6362;50.208;9.182;2023-02-22T03:00:09;99698.22;;;3.44;89.33
12594;BME280;6362;50.208;9.182;2023-02-22T03:08:34;99689.97;;;3.14;89.55
12594;BME280;6362;50.208;9.182;2023-02-22T03:21:33;99689.31;;;2.79;90.06
12594;BME280;6362;50.208;9.182;2023-02-22T03:24:18;99685.25;;;2.91;90.26
12594;BME280;6362;50.208;9.182;2023-02-22T03:29:43;99683.53;;;2.90;89.86
12594;BME280;6362;50.208;9.182;2023-02-22T03:32:15;99680.84;;;2.84;89.72
12594;BME280;6362;50.208;9.182;2023-02-22T03:34:45;99678.44;;;2.94;90.19
12594;BME280;6362;50.208;9.182;2023-02-22T03:37:31;99667.94;;;2.81;90.01
12594;BME280;6362;50.208;9.182;2023-02-22T03:39:59;99663.88;;;2.94;89.63
12594;BME280;6362;50.208;9.182;2023-02-22T03:42:28;99666.34;;;2.88;89.78
12594;BME280;6362;50.208;9.182;2023-02-22T03:44:57;99664.25;;;3.14;91.80
12594;BME280;6362;50.208;9.182;2023-02-22T03:47:31;99665.31;;;3.25;92.22
12594;BME280;6362;50.208;9.182;2023-02-22T03:50:05;99665.50;;;3.34;91.35
12594;BME280;6362;50.208;9.182;2023-02-22T03:52:35;99663.81;;;3.38;90.75
12594;BME280;6362;50.208;9.182;2023-02-22T03:55:01;99671.78;;;3.52;90.98
12594;BME280;6362;50.208;9.182;2023-02-22T03:57:33;99664.81;;;3.46;91.23
12594;BME280;6362;50.208;9.182;2023-02-22T03:59:59;99670.16;;;3.58;91.40
12594;BME280;6362;50.208;9.182;2023-02-22T04:02:25;99660.81;;;3.62;90.07
12594;BME280;6362;50.208;9.182;2023-02-22T04:04:50;99664.72;;;3.40;89.46
12594;BME280;6362;50.208;9.182;2023-02-22T04:07:16;99653.31;;;3.24;89.85
12594;BME280;6362;50.208;9.182;2023-02-22T04:09:42;99656.75;;;3.25;89.60
12594;BME280;6362;50.208;9.182;2023-02-22T04:12:07;99653.97;;;3.12;89.39
12594;BME280;6362;50.208;9.182;2023-02-22T04:14:33;99655.66;;;3.12;88.90
12594;BME280;6362;50.208;9.182;2023-02-22T04:16:58;99650.53;;;3.12;88.62
12594;BME280;6362;50.208;9.182;2023-02-22T04:19:24;99654.75;;;3.10;88.77
12594;BME280;6362;50.208;9.182;2023-02-22T04:21:50;99649.28;;;2.90;88.96
12594;BME280;6362;50.208;9.182;2023-02-22T04:24:15;99653.38;;;2.80;88.84
12594;BME280;6362;50.208;9.182;2023-02-22T04:26:40;99641.53;;;2.88;88.64
12594;BME280;6362;50.208;9.182;2023-02-22T04:29:06;99649.13;;;2.82;89.02
12594;BME280;6362;50.208;9.182;2023-02-22T04:31:33;99641.38;;;2.79;88.74
12594;BME280;6362;50.208;9.182;2023-02-22T04:33:59;99644.91;;;2.86;88.88
12594;BME280;6362;50.208;9.182;2023-02-22T04:36:26;99637.88;;;2.76;89.23
12594;BME280;6362;50.208;9.182;2023-02-22T04:38:53;99636.28;;;2.82;88.78
12594;BME280;6362;50.208;9.182;2023-02-22T04:41:19;99641.31;;;2.76;88.50
12594;BME280;6362;50.208;9.182;2023-02-22T04:43:45;99629.16;;;2.68;88.50
12594;BME280;6362;50.208;9.182;2023-02-22T04:46:11;99634.97;;;2.59;88.45
12594;BME280;6362;50.208;9.182;2023-02-22T04:48:36;99634.22;;;2.64;88.69
12594;BME280;6362;50.208;9.182;2023-02-22T04:51:03;99636.78;;;2.63;88.48
12594;BME280;6362;50.208;9.182;2023-02-22T04:53:28;99633.81;;;2.43;88.61
12594;BME280;6362;50.208;9.182;2023-02-22T04:55:54;99636.47;;;2.48;88.94
12594;BME280;6362;50.208;9.182;2023-02-22T04:58:20;99626.00;;;2.38;88.83
12594;BME280;6362;50.208;9.182;2023-02-22T05:00:45;99630.38;;;2.43;89.04
12594;BME280;6362;50.208;9.182;2023-02-22T05:03:10;99628.63;;;2.40;89.21
12594;BME280;6362;50.208;9.182;2023-02-22T05:05:36;99627.75;;;2.40;89.18
12594;BME280;6362;50.208;9.182;2023-02-22T05:08:01;99631.88;;;2.33;89.71
12594;BME280;6362;50.208;9.182;2023-02-22T05:10:27;99627.59;;;2.32;89.69
12594;BME280;6362;50.208;9.182;2023-02-22T05:12:52;99628.22;;;2.22;89.65
12594;BME280;6362;50.208;9.182;2023-02-22T05:15:19;99629.03;;;2.19;89.81
12594;BME280;6362;50.208;9.182;2023-02-22T05:17:45;99624.84;;;2.23;89.96
12594;BME280;6362;50.208;9.182;2023-02-22T05:20:18;99623.03;;;2.19;89.93
12594;BME280;6362;50.208;9.182;2023-02-22T05:22:45;99615.06;;;2.47;89.95
12594;BME280;6362;50.208;9.182;2023-02-22T05:25:11;99615.69;;;2.35;90.12
12594;BME280;6362;50.208;9.182;2023-02-22T05:27:36;99617.41;;;2.36;89.80
12594;BME280;6362;50.208;9.182;2023-02-22T05:30:02;99622.56;;;2.36;90.15
12594;BME280;6362;50.208;9.182;2023-02-22T05:32:28;99620.72;;;2.31;90.22
12594;BME280;6362;50.208;9.182;2023-02-22T05:34:53;99616.34;;;2.25;89.99
12594;BME280;6362;50.208;9.182;2023-02-22T05:37:19;99622.94;;;2.14;90.58
12594;BME280;6362;50.208;9.182;2023-02-22T05:39:44;99622.06;;;2.12;90.63
12594;BME280;6362;50.208;9.182;2023-02-22T05:42:10;99619.50;;;2.12;90.61
12594;BME280;6362;50.208;9.182;2023-02-22T05:44:36;99617.59;;;2.05;90.58
12594;BME280;6362;50.208;9.182;2023-02-22T05:47:01;99618.31;;;1.98;90.86
12594;BME280;6362;50.208;9.182;2023-02-22T05:49:27;99616.69;;;2.01;90.75
12594;BME280;6362;50.208;9.182;2023-02-22T05:51:52;99619.25;;;2.01;91.11
12594;BME280;6362;50.208;9.182;2023-02-22T05:54:23;99621.25;;;2.16;90.64
12594;BME280;6362;50.208;9.182;2023-02-22T05:56:48;99622.91;;;2.13;90.84
12594;BME280;6362;50.208;9.182;2023-02-22T05:59:14;99625.50;;;2.14;90.22
12594;BME280;6362;50.208;9.182;2023-02-22T06:01:39;99621.72;;;1.97;90.68
12594;BME280;6362;50.208;9.182;2023-02-22T06:04:05;99623.31;;;1.92;91.10
12594;BME280;6362;50.208;9.182;2023-02-22T06:06:30;99631.84;;;1.91;91.31
12594;BME280;6362;50.208;9.182;2023-02-22T06:08:56;99636.13;;;1.90;91.00
12594;BME280;6362;50.208;9.182;2023-02-22T06:11:21;99630.84;;;1.84;91.06
12594;BME280;6362;50.208;9.182;2023-02-22T06:13:51;99638.47;;;1.82;91.26
12594;BME280;6362;50.208;9.182;2023-02-22T06:16:19;99634.94;;;1.77;91.18
12594;BME280;6362;50.208;9.182;2023-02-22T06:18:45;99636.56;;;1.72;91.06
12594;BME280;6362;50.208;9.182;2023-02-22T06:21:11;99637.38;;;1.71;91.24
12594;BME280;6362;50.208;9.182;2023-02-22T06:23:36;99642.41;;;1.67;91.36
12594;BME280;6362;50.208;9.182;2023-02-22T06:26:02;99642.41;;;1.67;91.56
12594;BME280;6362;50.208;9.182;2023-02-22T06:28:28;99638.19;;;1.69;91.08
12594;BME280;6362;50.208;9.182;2023-02-22T06:30:53;99643.34;;;1.70;91.25
12594;BME280;6362;50.208;9.182;2023-02-22T06:33:18;99645.19;;;1.77;91.62
12594;BME280;6362;50.208;9.182;2023-02-22T06:35:44;99639.19;;;1.75;91.26
12594;BME280;6362;50.208;9.182;2023-02-22T06:38:10;99640.03;;;1.74;91.71
12594;BME280;6362;50.208;9.182;2023-02-22T06:40:35;99641.75;;;1.75;91.54
12594;BME280;6362;50.208;9.182;2023-02-22T06:43:01;99638.28;;;1.73;91.47
12594;BME280;6362;50.208;9.182;2023-02-22T06:45:27;99646.09;;;1.78;91.52
12594;BME280;6362;50.208;9.182;2023-02-22T06:47:52;99647.81;;;1.79;91.67
12594;BME280;6362;50.208;9.182;2023-02-22T06:50:23;99650.50;;;1.83;91.62
12594;BME280;6362;50.208;9.182;2023-02-22T06:52:49;99659.97;;;1.88;91.63
12594;BME280;6362;50.208;9.182;2023-02-22T06:55:27;99648.97;;;1.92;91.64
12594;BME280;6362;50.208;9.182;2023-02-22T06:57:53;99653.34;;;1.97;91.55
12594;BME280;6362;50.208;9.182;2023-02-22T07:00:21;99658.75;;;2.09;91.74
12594;BME280;6362;50.208;9.182;2023-02-22T07:02:48;99656.34;;;2.58;93.13
12594;BME280;6362;50.208;9.182;2023-02-22T07:05:16;99667.16;;;3.32;93.85
12594;BME280;6362;50.208;9.182;2023-02-22T07:07:42;99663.28;;;3.56;93.58
12594;BME280;6362;50.208;9.182;2023-02-22T07:10:18;99667.09;;;3.81;92.44
12594;BME280;6362;50.208;9.182;2023-02-22T07:12:44;99671.50;;;3.89;91.50
12594;BME280;6362;50.208;9.182;2023-02-22T07:15:09;99665.69;;;4.03;90.59
12594;BME280;6362;50.208;9.182;2023-02-22T07:17:35;99665.78;;;4.10;90.56
12594;BME280;6362;50.208;9.182;2023-02-22T07:20:00;99659.06;;;4.18;89.91
12594;BME280;6362;50.208;9.182;2023-02-22T07:22:26;99658.31;;;4.27;88.26
12594;BME280;6362;50.208;9.182;2023-02-22T07:24:51;99660.28;;;4.45;87.20
12594;BME280;6362;50.208;9.182;2023-02-22T07:27:16;99661.28;;;4.56;85.96
12594;BME280;6362;50.208;9.182;2023-02-22T07:29:42;99658.00;;;4.71;85.79
12594;BME280;6362;50.208;9.182;2023-02-22T07:32:08;99657.25;;;4.78;83.08
12594;BME280;6362;50.208;9.182;2023-02-22T07:34:34;99660.00;;;4.95;82.80
12594;BME280;6362;50.208;9.182;2023-02-22T07:36:59;99666.25;;;5.21;82.10
12594;BME280;6362;50.208;9.182;2023-02-22T07:39:25;99659.47;;;5.31;80.83
12594;BME280;6362;50.208;9.182;2023-02-22T07:41:51;99651.75;;;5.33;79.62
12594;BME280;6362;50.208;9.182;2023-02-22T07:44:16;99643.25;;;5.43;80.12
12594;BME280;6362;50.208;9.182;2023-02-22T07:46:46;99645.81;;;5.40;79.34
12594;BME280;6362;50.208;9.182;2023-02-22T07:49:13;99652.66;;;5.33;79.77
12594;BME280;6362;50.208;9.182;2023-02-22T07:51:38;99651.09;;;5.53;76.89
12594;BME280;6362;50.208;9.182;2023-02-22T07:54:04;99655.31;;;5.45;76.65
12594;BME280;6362;50.208;9.182;2023-02-22T07:56:29;99645.78;;;5.35;76.44
12594;BME280;6362;50.208;9.182;2023-02-22T07:58:55;99656.63;;;5.02;77.41
12594;BME280;6362;50.208;9.182;2023-02-22T08:01:20;99650.38;;;4.82;77.82
12594;BME280;6362;50.208;9.182;2023-02-22T08:03:46;99650.44;;;4.86;78.55
12594;BME280;6362;50.208;9.182;2023-02-22T08:06:12;99653.06;;;4.91;78.39
12594;BME280;6362;50.208;9.182;2023-02-22T08:08:37;99646.88;;;4.75;79.10
12594;BME280;6362;50.208;9.182;2023-02-22T08:11:03;99648.59;;;4.73;79.81
12594;BME280;6362;50.208;9.182;2023-02-22T08:13:29;99643.38;;;4.70;81.31
12594;BME280;6362;50.208;9.182;2023-02-22T08:15:55;99641.72;;;4.75;80.94
12594;BME280;6362;50.208;9.182;2023-02-22T08:18:21;99640.13;;;4.85;80.34
12594;BME280;6362;50.208;9.182;2023-02-22T08:20:49;99652.09;;;4.78;80.19
12594;BME280;6362;50.208;9.182;2023-02-22T08:23:16;99649.53;;;4.83;80.50
12594;BME280;6362;50.208;9.182;2023-02-22T08:25:42;99650.44;;;4.83;80.30
12594;BME280;6362;50.208;9.182;2023-02-22T08:28:11;99646.94;;;4.81;81.49
12594;BME280;6362;50.208;9.182;2023-02-22T08:30:38;99642.81;;;4.95;81.74
12594;BME280;6362;50.208;9.182;2023-02-22T08:33:04;99645.53;;;5.11;80.97
12594;BME280;6362;50.208;9.182;2023-02-22T08:35:31;99644.81;;;5.25;81.28
12594;BME280;6362;50.208;9.182;2023-02-22T08:38:02;99644.19;;;5.52;80.89
12594;BME280;6362;50.208;9.182;2023-02-22T08:40:31;99644.38;;;5.74;80.09
12594;BME280;6362;50.208;9.182;2023-02-22T08:42:57;99647.03;;;5.88;79.04
12594;BME280;6362;50.208;9.182;2023-02-22T08:45:23;99652.34;;;6.04;78.05
12594;BME280;6362;50.208;9.182;2023-02-22T08:47:49;99640.34;;;6.13;78.56
12594;BME280;6362;50.208;9.182;2023-02-22T08:50:21;99641.31;;;6.30;77.99
12594;BME280;6362;50.208;9.182;2023-02-22T08:52:52;99643.94;;;6.42;77.41
12594;BME280;6362;50.208;9.182;2023-02-22T08:55:22;99645.69;;;6.46;77.29
12594;BME280;6362;50.208;9.182;2023-02-22T08:57:48;99644.00;;;6.57;77.35
12594;BME280;6362;50.208;9.182;2023-02-22T09:00:15;99650.91;;;6.55;77.88
12594;BME280;6362;50.208;9.182;2023-02-22T09:02:41;99650.06;;;6.63;78.70
12594;BME280;6362;50.208;9.182;2023-02-22T09:05:07;99648.41;;;6.83;78.33
12594;BME280;6362;50.208;9.182;2023-02-22T09:07:32;99647.53;;;6.85;77.73
12594;BME280;6362;50.208;9.182;2023-02-22T09:09:58;99654.47;;;7.05;77.56
12594;BME280;6362;50.208;9.182;2023-02-22T09:12:23;99651.03;;;7.15;77.23
12594;BME280;6362;50.208;9.182;2023-02-22T09:14:48;99644.16;;;7.26;76.96
12594;BME280;6362;50.208;9.182;2023-02-22T09:17:14;99645.91;;;7.47;76.82
12594;BME280;6362;50.208;9.182;2023-02-22T09:19:40;99642.47;;;7.65;76.71
12594;BME280;6362;50.208;9.182;2023-02-22T09:22:05;99645.88;;;7.82;76.09
12594;BME280;6362;50.208;9.182;2023-02-22T09:24:30;99645.88;;;8.02;75.58
12594;BME280;6362;50.208;9.182;2023-02-22T09:26:56;99654.44;;;8.21;74.70
12594;BME280;6362;50.208;9.182;2023-02-22T09:29:25;99654.44;;;8.32;74.34
12594;BME280;6362;50.208;9.182;2023-02-22T09:31:53;99650.13;;;8.40;73.81
12594;BME280;6362;50.208;9.182;2023-02-22T09:34:20;99657.00;;;8.49;74.36
12594;BME280;6362;50.208;9.182;2023-02-22T09:36:48;99656.88;;;8.76;73.81
12594;BME280;6362;50.208;9.182;2023-02-22T09:39:15;99650.78;;;8.86;73.56
12594;BME280;6362;50.208;9.182;2023-02-22T09:42:15;99647.19;;;9.10;72.19
12594;BME280;6362;50.208;9.182;2023-02-22T09:47:54;99633.22;;;9.34;70.79
12594;BME280;6362;50.208;9.182;2023-02-22T09:50:28;99633.03;;;9.54;70.16
12594;BME280;6362;50.208;9.182;2023-02-22T09:53:02;99625.19;;;9.60;70.60
12594;BME280;6362;50.208;9.182;2023-02-22T09:58:03;99620.34;;;10.14;68.73
12594;BME280;6362;50.208;9.182;2023-02-22T10:00:34;99617.66;;;10.25;68.19
12594;BME280;6362;50.208;9.182;2023-02-22T10:03:19;99615.81;;;10.36;66.63
12594;BME280;6362;50.208;9.182;2023-02-22T10:06:10;99612.41;;;10.31;66.73
12594;BME280;6362;50.208;9.182;2023-02-22T10:08:37;99620.25;;;10.28;67.16
12594;BME280;6362;50.208;9.182;2023-02-22T10:17:23;99615.56;;;11.19;65.52
12594;BME280;6362;50.208;9.182;2023-02-22T10:22:31;99609.50;;;11.71;64.20
12594;BME280;6362;50.208;9.182;2023-02-22T10:25:07;99610.47;;;12.15;62.46
12594;BME280;6362;50.208;9.182;2023-02-22T10:30:27;99603.09;;;12.79;60.71
12594;BME280;6362;50.208;9.182;2023-02-22T10:32:57;99605.78;;;13.13;60.64
12594;BME280;6362;50.208;9.182;2023-02-22T10:35:32;99599.09;;;13.40;59.23
12594;BME280;6362;50.208;9.182;2023-02-22T10:38:10;99600.00;;;13.73;56.98
12594;BME280;6362;50.208;9.182;2023-02-22T10:40:37;99592.53;;;13.92;56.80
12594;BME280;6362;50.208;9.182;2023-02-22T10:43:04;99596.09;;;13.89;57.27
12594;BME280;6362;50.208;9.182;2023-02-22T10:45:32;99589.50;;;13.74;57.63
12594;BME280;6362;50.208;9.182;2023-02-22T10:48:18;99585.38;;;13.66;57.90
12594;BME280;6362;50.208;9.182;2023-02-22T10:50:46;99587.09;;;13.33;58.54
12594;BME280;6362;50.208;9.182;2023-02-22T10:53:12;99579.91;;;13.41;58.86
12594;BME280;6362;50.208;9.182;2023-02-22T10:56:08;99573.91;;;13.71;58.12
12594;BME280;6362;50.208;9.182;2023-02-22T11:01:27;99578.53;;;14.57;57.65
12594;BME280;6362;50.208;9.182;2023-02-22T11:04:19;99572.94;;;15.25;54.46
12594;BME280;6362;50.208;9.182;2023-02-22T11:09:25;99574.97;;;15.95;53.84
12594;BME280;6362;50.208;9.182;2023-02-22T11:12:10;99575.00;;;16.42;51.28
12594;BME280;6362;50.208;9.182;2023-02-22T11:14:36;99566.03;;;16.72;50.49
12594;BME280;6362;50.208;9.182;2023-02-22T11:17:06;99570.91;;;17.03;49.48
12594;BME280;6362;50.208;9.182;2023-02-22T11:19:33;99561.91;;;17.31;49.40
12594;BME280;6362;50.208;9.182;2023-02-22T11:24:32;99553.72;;;17.81;48.63
12594;BME280;6362;50.208;9.182;2023-02-22T11:27:01;99559.09;;;17.98;47.59
12594;BME280;6362;50.208;9.182;2023-02-22T11:29:30;99555.88;;;18.31;46.09
12594;BME280;6362;50.208;9.182;2023-02-22T11:31:57;99539.28;;;18.68;44.50
12594;BME280;6362;50.208;9.182;2023-02-22T11:36:50;99550.00;;;18.63;43.99
12594;BME280;6362;50.208;9.182;2023-02-22T11:39:29;99533.78;;;18.35;44.10
12594;BME280;6362;50.208;9.182;2023-02-22T11:42:19;99531.16;;;18.14;46.51
12594;BME280;6362;50.208;9.182;2023-02-22T11:44:47;99528.53;;;17.96;47.36
12594;BME280;6362;50.208;9.182;2023-02-22T11:47:13;99523.47;;;18.10;46.77
12594;BME280;6362;50.208;9.182;2023-02-22T11:49:41;99519.22;;;18.07;45.82
12594;BME280;6362;50.208;9.182;2023-02-22T12:00:09;99511.03;;;18.13;46.54
12594;BME280;6362;50.208;9.182;2023-02-22T12:05:35;99515.81;;;18.05;46.96
12594;BME280;6362;50.208;9.182;2023-02-22T12:08:19;99510.00;;;18.36;45.99
12594;BME280;6362;50.208;9.182;2023-02-22T12:19:00;99513.75;;;18.31;45.69
12594;BME280;6362;50.208;9.182;2023-02-22T12:21:31;99503.97;;;18.34;45.08
12594;BME280;6362;50.208;9.182;2023-02-22T12:26:33;99498.53;;;18.37;45.33
12594;BME280;6362;50.208;9.182;2023-02-22T12:29:05;99499.59;;;18.14;45.66
12594;BME280;6362;50.208;9.182;2023-02-22T12:31:49;99497.56;;;18.40;45.19
12594;BME280;6362;50.208;9.182;2023-02-22T12:36:47;99499.81;;;19.21;43.96
12594;BME280;6362;50.208;9.182;2023-02-22T12:42:01;99490.50;;;19.66;41.98
12594;BME280;6362;50.208;9.182;2023-02-22T12:44:38;99502.13;;;19.80;41.48
12594;BME280;6362;50.208;9.182;2023-02-22T12:47:06;99499.94;;;19.70;41.55
12594;BME280;6362;50.208;9.182;2023-02-22T12:49:48;99501.19;;;19.81;41.62
12594;BME280;6362;50.208;9.182;2023-02-22T12:52:25;99499.91;;;20.21;40.58
12594;BME280;6362;50.208;9.182;2023-02-22T13:00:57;99496.31;;;20.71;39.22
12594;BME280;6362;50.208;9.182;2023-02-22T13:03:39;99492.66;;;20.58;38.70
12594;BME280;6362;50.208;9.182;2023-02-22T13:06:27;99494.19;;;20.46;39.12
12594;BME280;6362;50.208;9.182;2023-02-22T13:09:59;99491.66;;;20.11;39.78
12594;BME280;6362;50.208;9.182;2023-02-22T13:15:22;99490.56;;;19.47;40.95
12594;BME280;6362;50.208;9.182;2023-02-22T13:20:47;99481.56;;;19.34;40.50
12594;BME280;6362;50.208;9.182;2023-02-22T13:28:48;99468.06;;;19.40;41.04
12594;BME280;6362;50.208;9.182;2023-02-22T13:34:16;99458.84;;;19.32;41.57
12594;BME280;6362;50.208;9.182;2023-02-22T13:39:53;99459.09;;;19.62;40.37
12594;BME280;6362;50.208;9.182;2023-02-22T13:43:00;99459.06;;;19.44;40.60
12594;BME280;6362;50.208;9.182;2023-02-22T13:53:54;99446.16;;;18.69;41.12
12594;BME280;6362;50.208;9.182;2023-02-22T13:56:22;99449.50;;;18.72;42.05
12594;BME280;6362;50.208;9.182;2023-02-22T13:58:54;99446.97;;;18.88;41.09
12594;BME280;6362;50.208;9.182;2023-02-22T14:01:42;99448.38;;;18.95;40.66
12594;BME280;6362;50.208;9.182;2023-02-22T14:04:42;99441.81;;;18.68;42.24
12594;BME280;6362;50.208;9.182;2023-02-22T14:15:15;99436.81;;;20.48;37.74
12594;BME280;6362;50.208;9.182;2023-02-22T14:22:45;99437.97;;;21.93;34.77
12594;BME280;6362;50.208;9.182;2023-02-22T14:25:32;99437.97;;;21.50;35.07
12594;BME280;6362;50.208;9.182;2023-02-22T14:27:58;99436.44;;;21.46;35.57
12594;BME280;6362;50.208;9.182;2023-02-22T14:30:32;99436.72;;;21.11;36.42
12594;BME280;6362;50.208;9.182;2023-02-22T14:32:59;99437.75;;;21.08;37.09
12594;BME280;6362;50.208;9.182;2023-02-22T14:35:37;99424.94;;;21.61;35.36
12594;BME280;6362;50.208;9.182;2023-02-22T14:38:13;99429.47;;;21.87;34.73
12594;BME280;6362;50.208;9.182;2023-02-22T14:40:43;99419.00;;;22.42;34.13
12594;BME280;6362;50.208;9.182;2023-02-22T14:45:52;99413.22;;;21.94;35.29
12594;BME280;6362;50.208;9.182;2023-02-22T14:48:35;99411.59;;;21.48;36.37
12594;BME280;6362;50.208;9.182;2023-02-22T14:51:26;99406.50;;;21.59;35.98
12594;BME280;6362;50.208;9.182;2023-02-22T14:53:53;99406.31;;;21.77;35.79
12594;BME280;6362;50.208;9.182;2023-02-22T14:56:23;99407.97;;;22.21;34.25
12594;BME280;6362;50.208;9.182;2023-02-22T14:58:53;99407.34;;;22.17;34.23
12594;BME280;6362;50.208;9.182;2023-02-22T15:03:51;99398.94;;;22.64;33.17
12594;BME280;6362;50.208;9.182;2023-02-22T15:06:25;99404.03;;;22.55;32.95
12594;BME280;6362;50.208;9.182;2023-02-22T15:09:13;99408.47;;;22.27;33.27
12594;BME280;6362;50.208;9.182;2023-02-22T15:11:40;99397.50;;;22.05;34.05
12594;BME280;6362;50.208;9.182;2023-02-22T15:14:20;99401.69;;;21.95;34.51
12594;BME280;6362;50.208;9.182;2023-02-22T15:16:59;99407.06;;;21.65;35.20
12594;BME280;6362;50.208;9.182;2023-02-22T15:19:28;99397.44;;;21.64;34.74
12594;BME280;6362;50.208;9.182;2023-02-22T15:21:56;99397.44;;;21.05;35.86
12594;BME280;6362;50.208;9.182;2023-02-22T15:24:30;99394.03;;;20.57;37.02
12594;BME280;6362;50.208;9.182;2023-02-22T15:27:09;99393.84;;;19.97;38.48
12594;BME280;6362;50.208;9.182;2023-02-22T15:29:41;99394.50;;;19.51;39.18
12594;BME280;6362;50.208;9.182;2023-02-22T15:32:34;99395.88;;;18.91;39.98
12594;BME280;6362;50.208;9.182;2023-02-22T15:38:03;99390.38;;;17.66;42.48
12594;BME280;6362;50.208;9.182;2023-02-22T15:40:30;99401.06;;;17.02;44.25
12594;BME280;6362;50.208;9.182;2023-02-22T15:43:04;99402.53;;;16.67;45.08
12594;BME280;6362;50.208;9.182;2023-02-22T15:45:33;99403.13;;;16.30;46.19
12594;BME280;6362;50.208;9.182;2023-02-22T15:47:59;99396.63;;;15.95;47.03
12594;BME280;6362;50.208;9.182;2023-02-22T15:50:30;99399.78;;;15.56;48.09
12594;BME280;6362;50.208;9.182;2023-02-22T15:55:45;99401.47;;;14.82;50.41